createdAt,value
2022-11-27T00:01:35.410Z,102335.00
2022-11-27T00:04:02.959Z,102337.59
2022-11-27T00:06:32.059Z,102329.09
2022-11-27T00:09:02.341Z,102338.06
2022-11-27T00:11:32.044Z,102343.38
2022-11-27T00:14:00.143Z,102338.06
2022-11-27T00:16:28.360Z,102339.66
2022-11-27T00:18:55.455Z,102335.09
2022-11-27T00:21:30.540Z,102338.34
2022-11-27T00:24:02.287Z,102334.16
2022-11-27T00:26:37.252Z,102335.06
2022-11-27T00:29:05.636Z,102331.59
2022-11-27T00:31:34.741Z,102321.31
2022-11-27T00:34:07.091Z,102341.06
2022-11-27T00:36:35.354Z,102335.81
2022-11-27T00:39:03.448Z,102331.66
2022-11-27T00:41:31.441Z,102332.81
2022-11-27T00:43:59.187Z,102326.50
2022-11-27T00:46:31.191Z,102328.09
2022-11-27T00:49:00.464Z,102324.88
2022-11-27T00:51:29.183Z,102332.75
2022-11-27T00:53:57.104Z,102331.25
2022-11-27T00:56:34.645Z,102331.94
2022-11-27T00:59:02.422Z,102329.31
2022-11-27T01:01:41.038Z,102331.78
2022-11-27T01:04:14.792Z,102329.94
2022-11-27T01:06:43.258Z,102326.34
2022-11-27T01:09:13.506Z,102324.47
2022-11-27T01:11:41.309Z,102326.28
2022-11-27T01:14:18.271Z,102320.28
2022-11-27T01:16:45.678Z,102326.25
2022-11-27T01:19:15.246Z,102327.69
2022-11-27T01:21:42.621Z,102326.84
2022-11-27T01:24:13.450Z,102313.38
2022-11-27T01:26:41.470Z,102311.88
2022-11-27T01:29:08.760Z,102309.81
2022-11-27T01:31:36.129Z,102308.78
2022-11-27T01:34:16.982Z,102299.00
2022-11-27T01:36:45.069Z,102312.25
2022-11-27T01:39:20.599Z,102313.69
2022-11-27T01:41:49.343Z,102308.28
2022-11-27T01:44:25.434Z,102300.06
2022-11-27T01:47:10.438Z,102297.31
2022-11-27T01:49:52.946Z,102284.31
2022-11-27T01:52:46.957Z,102279.41
2022-11-27T01:55:29.313Z,102280.91
2022-11-27T01:58:15.108Z,102275.75
2022-11-27T02:00:42.358Z,102264.78
2022-11-27T02:03:09.667Z,102252.28
2022-11-27T02:05:36.934Z,102251.34
2022-11-27T02:08:10.927Z,102250.03
2022-11-27T02:11:23.387Z,102250.94
2022-11-27T02:14:39.077Z,102249.69
2022-11-27T02:17:38.893Z,102251.16
2022-11-27T02:21:06.633Z,102243.00
2022-11-27T02:24:36.150Z,102244.25
2022-11-27T02:27:48.882Z,102240.28
2022-11-27T02:30:16.887Z,102235.06
2022-11-27T02:32:59.835Z,102230.56
2022-11-27T02:36:09.446Z,102236.50
2022-11-27T02:38:55.761Z,102248.72
2022-11-27T02:41:54.127Z,102246.56
2022-11-27T02:44:23.504Z,102236.66
2022-11-27T02:46:50.737Z,102239.38
2022-11-27T02:49:20.210Z,102239.63
2022-11-27T02:51:56.405Z,102237.56
2022-11-27T02:54:30.775Z,102241.97
2022-11-27T02:57:03.621Z,102240.63
2022-11-27T02:59:33.517Z,102251.38
2022-11-27T03:02:19.933Z,102249.19
2022-11-27T03:04:55.356Z,102242.28
2022-11-27T03:07:51.409Z,102247.63
2022-11-27T03:10:44.141Z,102247.38
2022-11-27T03:13:11.678Z,102247.31
2022-11-27T03:16:22.518Z,102245.31
2022-11-27T03:19:53.256Z,102240.81
2022-11-27T03:22:20.328Z,102239.38
2022-11-27T03:24:49.740Z,102244.84
2022-11-27T03:27:27.909Z,102243.34
2022-11-27T03:30:02.298Z,102246.28
2022-11-27T03:32:30.929Z,102251.47
2022-11-27T03:34:58.431Z,102257.78
2022-11-27T03:37:26.023Z,102256.63
2022-11-27T03:39:53.404Z,102252.75
2022-11-27T03:42:40.188Z,102253.84
2022-11-27T03:45:38.679Z,102261.03
2022-11-27T03:49:01.336Z,102252.44
2022-11-27T03:51:52.053Z,102246.59
2022-11-27T03:55:00.174Z,102247.72
2022-11-27T03:58:02.955Z,102242.19
2022-11-27T04:00:41.999Z,102242.66
2022-11-27T04:03:13.169Z,102232.56
2022-11-27T04:05:40.844Z,102238.13
2022-11-27T04:08:07.820Z,102238.03
2022-11-27T04:10:34.814Z,102240.22
2022-11-27T04:13:01.799Z,102232.81
2022-11-27T04:15:28.757Z,102230.09
2022-11-27T04:17:55.731Z,102233.38
2022-11-27T04:20:22.689Z,102243.44
2022-11-27T04:22:49.714Z,102234.88
2022-11-27T04:25:17.762Z,102232.13
2022-11-27T04:27:44.783Z,102234.72
2022-11-27T04:30:12.961Z,102238.13
2022-11-27T04:32:40.307Z,102232.19
2022-11-27T04:35:08.927Z,102231.38
2022-11-27T04:37:36.459Z,102229.66
2022-11-27T04:40:05.799Z,102240.84
2022-11-27T04:42:32.817Z,102230.56
2022-11-27T04:44:59.905Z,102237.53
2022-11-27T04:47:27.563Z,102245.31
2022-11-27T04:49:54.545Z,102234.59
2022-11-27T04:52:21.520Z,102230.88
2022-11-27T04:54:48.548Z,102232.81
2022-11-27T04:57:15.548Z,102236.03
2022-11-27T04:59:42.501Z,102236.97
2022-11-27T05:02:09.469Z,102234.94
2022-11-27T05:04:36.458Z,102238.16
2022-11-27T05:07:03.416Z,102243.69
2022-11-27T05:09:30.388Z,102240.00
2022-11-27T05:11:57.400Z,102243.22
2022-11-27T05:14:29.058Z,102238.91
2022-11-27T05:16:59.122Z,102236.00
2022-11-27T05:19:30.123Z,102232.53
2022-11-27T05:21:58.074Z,102235.47
2022-11-27T05:24:28.513Z,102233.84
2022-11-27T05:26:56.795Z,102235.03
2022-11-27T05:29:25.804Z,102235.84
2022-11-27T05:31:53.183Z,102242.78
2022-11-27T05:34:20.466Z,102248.38
2022-11-27T05:36:47.455Z,102244.41
2022-11-27T05:39:14.853Z,102233.78
2022-11-27T05:41:43.366Z,102234.09
2022-11-27T05:44:15.321Z,102237.41
2022-11-27T05:46:45.953Z,102238.13
2022-11-27T05:49:15.656Z,102240.22
2022-11-27T05:51:50.383Z,102241.38
2022-11-27T05:54:18.645Z,102237.03
2022-11-27T05:56:45.657Z,102239.06
2022-11-27T05:59:12.788Z,102230.38
2022-11-27T06:01:40.088Z,102227.28
2022-11-27T06:04:07.189Z,102221.19
2022-11-27T06:06:34.189Z,102225.75
2022-11-27T06:09:01.362Z,102220.91
2022-11-27T06:11:28.358Z,102222.47
2022-11-27T06:13:55.405Z,102212.53
2022-11-27T06:16:24.262Z,102208.16
2022-11-27T06:18:54.592Z,102203.28
2022-11-27T06:21:24.312Z,102206.19
2022-11-27T06:23:55.605Z,102206.44
2022-11-27T06:26:31.201Z,102200.75
2022-11-27T06:29:01.093Z,102203.16
2022-11-27T06:31:32.225Z,102205.84
2022-11-27T06:34:00.344Z,102201.88
2022-11-27T06:36:37.505Z,102201.13
2022-11-27T06:39:06.347Z,102200.28
2022-11-27T06:41:33.660Z,102203.41
2022-11-27T06:44:01.994Z,102205.09
2022-11-27T06:46:30.209Z,102200.16
2022-11-27T06:48:58.896Z,102204.91
2022-11-27T06:51:30.147Z,102209.72
2022-11-27T06:53:59.076Z,102196.84
2022-11-27T06:56:29.552Z,102196.88
2022-11-27T06:59:00.629Z,102202.16
2022-11-27T07:01:30.807Z,102210.81
2022-11-27T07:03:58.785Z,102208.13
2022-11-27T07:06:28.210Z,102204.69
2022-11-27T07:08:56.136Z,102213.59
2022-11-27T07:11:28.108Z,102202.41
2022-11-27T07:13:59.052Z,102210.44
2022-11-27T07:16:29.186Z,102203.72
2022-11-27T07:19:01.921Z,102202.88
2022-11-27T07:21:29.211Z,102199.47
2022-11-27T07:23:56.747Z,102189.34
2022-11-27T07:26:28.425Z,102191.91
2022-11-27T07:28:55.988Z,102190.03
2022-11-27T07:31:28.225Z,102189.00
2022-11-27T07:33:56.778Z,102183.56
2022-11-27T07:36:28.747Z,102191.47
2022-11-27T07:38:57.864Z,102192.31
2022-11-27T07:41:28.062Z,102191.31
2022-11-27T07:43:59.461Z,102191.63
2022-11-27T07:46:26.739Z,102182.09
2022-11-27T07:48:53.714Z,102180.84
2022-11-27T07:51:22.457Z,102181.53
2022-11-27T07:53:51.837Z,102175.13
2022-11-27T07:56:19.794Z,102173.97
2022-11-27T07:58:49.486Z,102169.25
2022-11-27T08:01:19.485Z,102169.13
2022-11-27T08:03:46.638Z,102163.81
2022-11-27T08:06:21.214Z,102166.00
2022-11-27T08:08:48.927Z,102172.66
2022-11-27T08:11:27.313Z,102168.06
2022-11-27T08:14:03.230Z,102165.72
2022-11-27T08:16:32.149Z,102167.41
2022-11-27T08:18:59.481Z,102167.31
2022-11-27T08:21:28.961Z,102169.06
2022-11-27T08:23:58.078Z,102160.38
2022-11-27T08:26:27.738Z,102156.81
2022-11-27T08:28:56.283Z,102150.38
2022-11-27T08:31:24.906Z,102162.97
2022-11-27T08:33:52.162Z,102164.88
2022-11-27T08:36:19.220Z,102161.78
2022-11-27T08:38:47.050Z,102164.06
2022-11-27T08:41:14.153Z,102169.06
2022-11-27T08:43:41.128Z,102166.13
2022-11-27T08:46:08.666Z,102160.25
2022-11-27T08:48:36.533Z,102167.75
2022-11-27T08:51:15.112Z,102172.56
2022-11-27T08:53:45.423Z,102167.84
2022-11-27T08:56:21.997Z,102175.81
2022-11-27T08:58:49.325Z,102175.72
2022-11-27T09:01:19.771Z,102177.81
2022-11-27T09:03:48.211Z,102173.91
2022-11-27T09:06:21.714Z,102168.56
2022-11-27T09:08:50.239Z,102171.91
2022-11-27T09:11:20.812Z,102173.09
2022-11-27T09:13:48.172Z,102168.63
2022-11-27T09:16:21.769Z,102168.78
2022-11-27T09:18:52.528Z,102162.97
2022-11-27T09:21:23.055Z,102156.16
2022-11-27T09:24:01.499Z,102158.66
2022-11-27T09:26:29.641Z,102171.72
2022-11-27T09:29:00.093Z,102161.91
2022-11-27T09:31:27.718Z,102151.66
2022-11-27T09:33:54.806Z,102151.31
2022-11-27T09:36:26.036Z,102154.59
2022-11-27T09:38:53.745Z,102152.31
2022-11-27T09:41:53.468Z,102143.41
2022-11-27T09:44:53.827Z,102141.34
2022-11-27T09:47:41.633Z,102135.38
2022-11-27T09:50:21.247Z,102137.09
2022-11-27T09:53:30.580Z,102137.56
2022-11-27T09:56:03.502Z,102133.94
2022-11-27T09:58:45.442Z,102134.56
2022-11-27T10:01:28.569Z,102133.19
2022-11-27T10:04:02.585Z,102129.03
2022-11-27T10:06:48.538Z,102134.44
2022-11-27T10:09:45.608Z,102122.88
2022-11-27T10:12:30.046Z,102109.41
2022-11-27T10:15:43.248Z,102109.00
2022-11-27T10:18:38.963Z,102114.28
2022-11-27T10:21:50.595Z,102108.03
2022-11-27T10:25:09.431Z,102111.09
2022-11-27T10:27:50.632Z,102108.38
2022-11-27T10:30:21.734Z,102109.56
2022-11-27T10:32:56.301Z,102118.75
2022-11-27T10:35:32.479Z,102117.63
2022-11-27T10:38:22.258Z,102111.22
2022-11-27T10:41:47.696Z,102109.56
2022-11-27T10:44:56.914Z,102108.22
2022-11-27T10:47:29.784Z,102110.78
2022-11-27T10:50:00.767Z,102099.22
2022-11-27T10:52:27.818Z,102096.56
2022-11-27T10:55:04.544Z,102091.09
2022-11-27T10:58:34.221Z,102093.66
2022-11-27T11:01:13.593Z,102075.94
2022-11-27T11:03:41.104Z,102084.56
2022-11-27T11:06:22.970Z,102086.09
2022-11-27T11:09:06.867Z,102082.22
2022-11-27T11:11:33.906Z,102078.72
2022-11-27T11:14:00.896Z,102075.16
2022-11-27T11:16:35.141Z,102064.63
2022-11-27T11:19:03.395Z,102062.06
2022-11-27T11:21:42.452Z,102056.06
2022-11-27T11:24:29.832Z,102058.75
2022-11-27T11:27:29.736Z,102071.13
2022-11-27T11:30:05.442Z,102077.81
2022-11-27T11:32:37.995Z,102074.13
2022-11-27T11:35:24.165Z,102062.13
2022-11-27T11:37:54.937Z,102068.97
2022-11-27T11:40:36.617Z,102070.31
2022-11-27T11:43:26.541Z,102071.31
2022-11-27T11:45:53.608Z,102062.22
2022-11-27T11:48:28.035Z,102064.19
2022-11-27T11:51:02.329Z,102065.31
2022-11-27T11:53:45.510Z,102059.19
2022-11-27T11:56:28.370Z,102048.09
2022-11-27T11:59:02.907Z,102058.31
2022-11-27T12:01:45.519Z,102058.19
2022-11-27T12:04:49.703Z,102052.78
2022-11-27T12:08:18.465Z,102053.09
2022-11-27T12:11:24.467Z,102045.41
2022-11-27T12:14:35.567Z,102036.84
2022-11-27T12:17:35.406Z,102039.28
2022-11-27T12:20:22.615Z,102033.59
2022-11-27T12:23:17.244Z,102031.69
2022-11-27T12:26:19.803Z,102018.34
2022-11-27T12:29:27.339Z,102019.63
2022-11-27T12:32:34.937Z,102005.56
2022-11-27T12:35:51.839Z,101996.41
2022-11-27T12:38:55.213Z,101993.53
2022-11-27T12:41:41.031Z,101991.00
2022-11-27T12:44:45.500Z,101991.72
2022-11-27T12:47:40.109Z,101980.81
2022-11-27T12:50:54.619Z,101972.50
2022-11-27T12:53:45.349Z,101971.28
2022-11-27T12:56:35.990Z,101963.06
2022-11-27T12:59:35.001Z,101956.69
2022-11-27T13:02:08.984Z,101959.06
2022-11-27T13:04:51.869Z,101959.41
2022-11-27T13:07:40.335Z,101954.38
2022-11-27T13:10:35.841Z,101954.91
2022-11-27T13:13:30.355Z,101956.38
2022-11-27T13:16:35.982Z,101946.03
2022-11-27T13:19:49.264Z,101956.31
2022-11-27T13:22:30.955Z,101944.56
2022-11-27T13:25:02.196Z,101939.16
2022-11-27T13:27:35.368Z,101937.13
2022-11-27T13:30:09.331Z,101924.88
2022-11-27T13:33:01.705Z,101926.31
2022-11-27T13:35:39.816Z,101922.69
2022-11-27T13:38:24.851Z,101923.22
2022-11-27T13:40:56.151Z,101926.19
2022-11-27T13:43:32.388Z,101926.97
2022-11-27T13:46:24.859Z,101929.03
2022-11-27T13:49:05.425Z,101918.47
2022-11-27T13:51:40.270Z,101915.97
2022-11-27T13:54:21.321Z,101909.41
2022-11-27T13:56:51.508Z,101905.94
2022-11-27T13:59:27.499Z,101909.38
2022-11-27T14:01:59.497Z,101908.44
2022-11-27T14:04:33.446Z,101899.06
2022-11-27T14:07:13.529Z,101899.00
2022-11-27T14:09:56.381Z,101884.47
2022-11-27T14:12:31.941Z,101884.91
2022-11-27T14:15:18.225Z,101890.94
2022-11-27T14:17:49.953Z,101883.53
2022-11-27T14:20:17.087Z,101888.19
2022-11-27T14:23:10.976Z,101883.97
2022-11-27T14:25:39.770Z,101873.66
2022-11-27T14:28:21.357Z,101876.94
2022-11-27T14:30:59.411Z,101883.19
2022-11-27T14:33:59.530Z,101894.22
2022-11-27T14:36:34.307Z,101896.41
2022-11-27T14:39:05.199Z,101882.13
2022-11-27T14:41:35.100Z,101884.81
2022-11-27T14:44:14.930Z,101888.06
2022-11-27T14:46:42.196Z,101890.53
2022-11-27T14:49:20.682Z,101895.13
2022-11-27T14:51:55.405Z,101897.69
2022-11-27T14:54:38.986Z,101896.19
2022-11-27T14:57:10.993Z,101891.25
2022-11-27T14:59:39.914Z,101887.13
2022-11-27T15:02:07.404Z,101888.19
2022-11-27T15:04:38.945Z,101883.06
2022-11-27T15:07:29.379Z,101883.91
2022-11-27T15:10:01.084Z,101885.78
2022-11-27T15:12:39.274Z,101882.25
2022-11-27T15:15:34.707Z,101879.94
2022-11-27T15:18:10.564Z,101870.91
2022-11-27T15:20:50.020Z,101875.22
2022-11-27T15:23:34.480Z,101861.66
2022-11-27T15:26:18.852Z,101860.53
2022-11-27T15:28:57.253Z,101856.47
2022-11-27T15:31:38.278Z,101847.97
2022-11-27T15:34:24.394Z,101843.97
2022-11-27T15:37:06.783Z,101840.78
2022-11-27T15:39:48.756Z,101852.25
2022-11-27T15:42:17.788Z,101851.84
2022-11-27T15:44:46.556Z,101847.38
2022-11-27T15:47:37.598Z,101849.66
2022-11-27T15:50:23.270Z,101841.47
2022-11-27T15:52:50.833Z,101849.97
2022-11-27T15:55:18.726Z,101843.66
2022-11-27T15:57:48.797Z,101841.47
2022-11-27T16:00:25.039Z,101835.44
2022-11-27T16:02:53.921Z,101833.16
2022-11-27T16:05:21.694Z,101832.91
2022-11-27T16:07:53.549Z,101830.19
2022-11-27T16:10:22.464Z,101823.56
2022-11-27T16:12:49.438Z,101820.00
2022-11-27T16:15:16.637Z,101814.81
2022-11-27T16:17:43.604Z,101812.31
2022-11-27T16:20:11.204Z,101807.81
2022-11-27T16:22:38.242Z,101804.31
2022-11-27T16:25:05.990Z,101805.97
2022-11-27T16:27:33.319Z,101813.88
2022-11-27T16:30:00.695Z,101805.22
2022-11-27T16:32:27.813Z,101803.25
2022-11-27T16:34:55.035Z,101803.16
2022-11-27T16:37:22.212Z,101795.22
2022-11-27T16:39:49.341Z,101796.66
2022-11-27T16:42:16.503Z,101799.59
2022-11-27T16:44:44.421Z,101800.25
2022-11-27T16:47:12.135Z,101797.25
2022-11-27T16:49:39.139Z,101789.72
2022-11-27T16:52:06.262Z,101789.00
2022-11-27T16:54:33.234Z,101784.66
2022-11-27T16:57:00.629Z,101780.88
2022-11-27T16:59:27.887Z,101776.25
2022-11-27T17:01:55.087Z,101779.41
2022-11-27T17:04:22.347Z,101775.91
2022-11-27T17:06:50.259Z,101773.97
2022-11-27T17:09:17.879Z,101784.41
2022-11-27T17:11:50.840Z,101770.47
2022-11-27T17:14:19.555Z,101766.69
2022-11-27T17:16:47.391Z,101765.47
2022-11-27T17:19:15.826Z,101763.78
2022-11-27T17:21:44.847Z,101759.66
2022-11-27T17:24:16.209Z,101764.81
2022-11-27T17:26:46.239Z,101760.91
2022-11-27T17:29:19.355Z,101754.72
2022-11-27T17:31:46.815Z,101764.91
2022-11-27T17:34:17.006Z,101757.03
2022-11-27T17:36:45.681Z,101752.31
2022-11-27T17:39:15.001Z,101745.03
2022-11-27T17:41:44.795Z,101735.25
2022-11-27T17:44:13.200Z,101726.59
2022-11-27T17:46:40.601Z,101728.59
2022-11-27T17:49:08.477Z,101728.56
2022-11-27T17:51:36.985Z,101721.69
2022-11-27T17:54:05.531Z,101723.81
2022-11-27T17:56:34.357Z,101721.34
2022-11-27T17:59:01.697Z,101718.78
2022-11-27T18:01:30.627Z,101715.41
2022-11-27T18:04:03.534Z,101720.78
2022-11-27T18:06:32.368Z,101722.66
2022-11-27T18:08:59.566Z,101715.66
2022-11-27T18:11:32.614Z,101706.09
2022-11-27T18:13:59.886Z,101694.91
2022-11-27T18:16:33.533Z,101691.75
2022-11-27T18:19:07.410Z,101683.94
2022-11-27T18:21:36.924Z,101681.72
2022-11-27T18:24:23.505Z,101673.44
2022-11-27T18:29:42.283Z,101665.19
2022-11-27T18:32:11.374Z,101666.28
2022-11-27T18:34:38.830Z,101666.63
2022-11-27T18:37:07.278Z,101667.19
2022-11-27T18:39:35.859Z,101664.16
2022-11-27T18:42:04.947Z,101664.78
2022-11-27T18:44:33.276Z,101663.66
2022-11-27T18:47:00.556Z,101673.97
2022-11-27T18:49:27.758Z,101677.53
2022-11-27T18:51:54.919Z,101677.41
2022-11-27T18:54:22.310Z,101683.09
2022-11-27T18:56:49.362Z,101681.09
2022-11-27T18:59:16.680Z,101678.66
2022-11-27T19:01:43.801Z,101680.75
2022-11-27T19:04:12.210Z,101683.91
2022-11-27T19:06:42.166Z,101684.75
2022-11-27T19:09:14.084Z,101679.25
2022-11-27T19:11:42.328Z,101683.00
2022-11-27T19:14:10.548Z,101681.22
2022-11-27T19:16:46.017Z,101686.03
2022-11-27T19:22:08.189Z,101677.03
2022-11-27T19:24:35.612Z,101682.75
2022-11-27T19:27:03.046Z,101669.97
2022-11-27T19:29:30.103Z,101670.50
2022-11-27T19:31:58.778Z,101663.91
2022-11-27T19:34:25.979Z,101669.38
2022-11-27T19:36:53.078Z,101665.25
2022-11-27T19:39:20.201Z,101658.06
2022-11-27T19:41:47.277Z,101654.75
2022-11-27T19:44:14.332Z,101655.59
2022-11-27T19:46:41.595Z,101651.75
2022-11-27T19:49:17.630Z,101643.03
2022-11-27T19:51:46.091Z,101650.69
2022-11-27T19:54:15.533Z,101645.69
2022-11-27T19:56:43.406Z,101642.94
2022-11-27T19:59:12.460Z,101638.63
2022-11-27T20:01:40.516Z,101637.69
2022-11-27T20:04:11.450Z,101639.09
2022-11-27T20:06:38.889Z,101633.75
2022-11-27T20:09:07.128Z,101639.00
2022-11-27T20:11:38.047Z,101633.66
2022-11-27T20:14:06.863Z,101627.06
2022-11-27T20:16:36.118Z,101624.81
2022-11-27T20:19:05.995Z,101627.69
2022-11-27T20:21:33.497Z,101634.84
2022-11-27T20:24:02.176Z,101620.72
2022-11-27T20:26:38.499Z,101621.97
2022-11-27T20:29:09.841Z,101623.16
2022-11-27T20:31:39.391Z,101622.88
2022-11-27T20:34:09.167Z,101629.63
2022-11-27T20:36:40.529Z,101622.50
2022-11-27T20:39:07.682Z,101621.66
2022-11-27T20:41:34.727Z,101628.53
2022-11-27T20:44:04.600Z,101629.16
2022-11-27T20:46:33.500Z,101618.22
2022-11-27T20:49:01.391Z,101627.72
2022-11-27T20:51:33.910Z,101624.91
2022-11-27T20:54:05.165Z,101628.78
2022-11-27T20:56:32.750Z,101631.19
2022-11-27T20:59:00.087Z,101618.13
2022-11-27T21:01:35.390Z,101616.53
2022-11-27T21:04:09.736Z,101614.19
2022-11-27T21:06:43.528Z,101604.28
2022-11-27T21:09:13.612Z,101598.88
2022-11-27T21:11:42.188Z,101598.03
2022-11-27T21:14:13.287Z,101598.84
2022-11-27T21:16:49.054Z,101589.38
2022-11-27T21:19:25.988Z,101583.63
2022-11-27T21:21:54.588Z,101577.97
2022-11-27T21:24:25.655Z,101566.88
2022-11-27T21:26:52.798Z,101559.97
2022-11-27T21:29:25.149Z,101559.78
2022-11-27T21:31:52.959Z,101551.78
2022-11-27T21:34:20.011Z,101556.44
2022-11-27T21:36:47.043Z,101559.59
2022-11-27T21:39:21.978Z,101553.91
2022-11-27T21:41:53.390Z,101547.22
2022-11-27T21:44:22.250Z,101552.31
2022-11-27T21:46:50.379Z,101546.94
2022-11-27T21:49:20.025Z,101546.66
2022-11-27T21:51:52.248Z,101550.69
2022-11-27T21:54:20.055Z,101543.31
2022-11-27T21:56:49.918Z,101540.91
2022-11-27T21:59:17.195Z,101543.78
2022-11-27T22:01:46.195Z,101555.47
2022-11-27T22:04:13.697Z,101547.22
2022-11-27T22:06:45.233Z,101543.41
2022-11-27T22:09:15.627Z,101551.69
2022-11-27T22:11:45.155Z,101551.03
2022-11-27T22:14:14.846Z,101553.34
2022-11-27T22:16:45.651Z,101560.75
2022-11-27T22:19:14.445Z,101550.59
2022-11-27T22:21:42.017Z,101548.38
2022-11-27T22:24:15.084Z,101543.53
2022-11-27T22:26:45.883Z,101543.22
2022-11-27T22:29:12.935Z,101540.69
2022-11-27T22:31:39.916Z,101539.72
2022-11-27T22:34:06.924Z,101543.75
2022-11-27T22:36:36.295Z,101545.75
2022-11-27T22:39:08.146Z,101539.59
2022-11-27T22:41:38.243Z,101532.22
2022-11-27T22:44:20.966Z,101532.28
2022-11-27T22:46:48.404Z,101532.44
2022-11-27T22:49:18.449Z,101536.81
2022-11-27T22:51:46.663Z,101540.56
2022-11-27T22:54:16.936Z,101534.72
2022-11-27T22:56:45.616Z,101539.00
2022-11-27T23:02:00.875Z,101537.28
2022-11-27T23:04:28.123Z,101536.75
2022-11-27T23:06:55.170Z,101520.81
2022-11-27T23:09:22.275Z,101513.63
2022-11-27T23:11:49.512Z,101515.97
2022-11-27T23:14:17.076Z,101507.75
2022-11-27T23:16:44.296Z,101521.09
2022-11-27T23:19:14.959Z,101514.00
2022-11-27T23:21:42.402Z,101508.38
2022-11-27T23:24:15.181Z,101507.75
2022-11-27T23:26:43.610Z,101503.75
2022-11-27T23:29:10.734Z,101510.16
2022-11-27T23:31:39.577Z,101505.19
2022-11-27T23:34:13.436Z,101494.75
2022-11-27T23:36:40.911Z,101497.28
2022-11-27T23:39:10.964Z,101496.31
2022-11-27T23:41:39.554Z,101495.75
2022-11-27T23:44:06.972Z,101493.34
2022-11-27T23:46:34.014Z,101493.56
2022-11-27T23:49:01.086Z,101492.63
2022-11-27T23:51:32.317Z,101482.56
2022-11-27T23:54:00.867Z,101479.84
2022-11-27T23:56:31.975Z,101484.75
2022-11-27T23:59:00.528Z,101484.50
